Time;durP1;ratioP1;P1;durP2;ratioP2;P2;SDS_P1;SDS_P2;PMS_P1;PMS_P2;Temp;Humidity;BMP_temperature;BMP_pressure;BME280_temperature;BME280_humidity;BME280_pressure;Samples;Min_cycle;Max_cycle;Signal;HPM_P1;HPM_P2
2022/12/17 13:06:40;;;;;;;37.75;19.00;;;-0.20;99.90;;;;;;4981060;28;20046;-88
2022/12/17 13:09:15;;;;;;;33.35;17.65;;;0.40;99.90;;;;;;4996564;28;20363;-87
2022/12/17 13:11:45;;;;;;;38.92;18.92;;;0.40;99.90;;;;;;4981742;28;20034;-89
2022/12/17 13:14:45;;;;;;;33.05;16.88;;;0.90;99.90;;;;;;4984442;28;20030;-87
2022/12/17 13:17:13;;;;;;;43.30;18.90;;;1.10;99.90;;;;;;5001839;28;20085;-84
2022/12/17 13:19:57;;;;;;;34.10;15.93;;;1.00;99.90;;;;;;5005089;28;20125;-88
2022/12/17 13:22:23;;;;;;;41.17;22.95;;;1.10;99.90;;;;;;4968530;28;20031;-87
2022/12/17 13:24:51;;;;;;;33.42;16.95;;;0.90;99.90;;;;;;4984748;28;20045;-87
2022/12/17 13:27:46;;;;;;;44.83;24.20;;;0.60;99.90;;;;;;4967731;28;20498;-86
2022/12/17 13:30:17;;;;;;;42.30;18.63;;;0.00;99.90;;;;;;4972771;28;20073;-86
2022/12/17 13:33:20;;;;;;;41.58;22.73;;;0.20;99.90;;;;;;5001504;28;20045;-85
2022/12/17 13:36:04;;;;;;;28.10;15.73;;;0.10;99.90;;;;;;4983462;28;20455;-86
2022/12/17 13:39:06;;;;;;;31.02;17.13;;;0.70;99.90;;;;;;5001082;28;20054;-85
2022/12/17 13:41:33;;;;;;;32.45;14.80;;;1.10;99.90;;;;;;4986205;28;20066;-86
2022/12/17 13:44:01;;;;;;;34.70;17.08;;;1.10;99.90;;;;;;4968155;28;20023;-84
2022/12/17 13:46:28;;;;;;;31.23;17.50;;;1.80;99.90;;;;;;4984600;28;20038;-86
2022/12/17 13:48:58;;;;;;;36.75;19.10;;;2.20;99.90;;;;;;4991116;28;20426;-86
2022/12/17 13:51:26;;;;;;;37.45;17.92;;;2.30;99.90;;;;;;4967896;28;20034;-85
2022/12/17 13:53:56;;;;;;;37.33;21.77;;;2.40;99.90;;;;;;4968254;28;20500;-85
2022/12/17 13:56:26;;;;;;;26.48;15.02;;;2.60;99.90;;;;;;4988230;28;20133;-85
2022/12/17 13:58:54;;;;;;;47.45;25.80;;;2.10;99.90;;;;;;4968728;28;20042;-85
2022/12/17 14:01:19;;;;;;;38.45;18.00;;;1.30;99.90;;;;;;4982525;28;20038;-85
2022/12/17 14:03:53;;;;;;;25.45;14.40;;;0.80;99.90;;;;;;4968999;28;20474;-84
2022/12/17 14:06:19;;;;;;;27.73;15.70;;;1.30;99.90;;;;;;4957056;28;20641;-85
2022/12/17 14:08:44;;;;;;;39.40;20.85;;;1.30;99.90;;;;;;4980599;28;20042;-85
2022/12/17 14:13:54;;;;;;;40.42;20.92;;;1.70;99.90;;;;;;4985364;28;20032;-85
2022/12/17 14:16:20;;;;;;;29.92;16.40;;;1.70;99.90;;;;;;4968693;28;20035;-85
2022/12/17 14:18:50;;;;;;;40.92;21.92;;;1.60;99.90;;;;;;4950694;28;20074;-85
2022/12/17 14:21:16;;;;;;;31.92;16.45;;;0.90;99.90;;;;;;4968617;28;20387;-84
2022/12/17 14:23:42;;;;;;;38.22;20.70;;;1.00;99.90;;;;;;4967906;28;20037;-85
2022/12/17 14:26:11;;;;;;;43.90;24.45;;;1.20;99.90;;;;;;4946309;28;20076;-84
2022/12/17 14:28:57;;;;;;;35.13;20.00;;;1.30;99.90;;;;;;4984064;28;20037;-84
2022/12/17 14:31:29;;;;;;;31.15;16.70;;;1.20;99.90;;;;;;4983080;28;20049;-85
2022/12/17 14:34:12;;;;;;;36.55;19.02;;;1.60;99.90;;;;;;4981902;28;20123;-84
2022/12/17 14:36:39;;;;;;;45.67;23.02;;;1.20;99.90;;;;;;4941074;28;20038;-83
2022/12/17 14:39:17;;;;;;;41.42;23.90;;;0.60;99.90;;;;;;4981302;28;20092;-84
2022/12/17 14:44:27;;;;;;;40.17;22.63;;;0.60;99.90;;;;;;4969355;28;20081;-85
2022/12/17 14:47:06;;;;;;;31.23;19.10;;;0.60;99.90;;;;;;4984188;28;20505;-85
2022/12/17 14:49:31;;;;;;;34.70;19.10;;;1.00;99.90;;;;;;4982671;28;20042;-84
2022/12/17 14:51:58;;;;;;;30.30;17.05;;;0.80;99.90;;;;;;4968080;28;20030;-85
2022/12/17 14:54:31;;;;;;;32.00;17.52;;;0.70;99.90;;;;;;4982452;28;20030;-81
2022/12/17 14:56:57;;;;;;;35.53;18.27;;;0.70;99.90;;;;;;4994199;28;20068;-82
2022/12/17 14:59:36;;;;;;;40.75;22.15;;;0.70;99.90;;;;;;4974340;28;20030;-82
2022/12/17 15:02:26;;;;;;;40.92;22.77;;;0.60;99.90;;;;;;4982224;28;20034;-85
2022/12/17 15:04:54;;;;;;;33.88;18.60;;;0.50;99.90;;;;;;4968945;28;20118;-84
2022/12/17 15:07:27;;;;;;;32.05;17.33;;;0.40;99.90;;;;;;4968861;28;20039;-84
2022/12/17 15:09:53;;;;;;;39.65;22.90;;;0.30;99.90;;;;;;4998924;28;20026;-84
2022/12/17 15:12:20;;;;;;;34.20;19.13;;;0.20;99.90;;;;;;4984012;28;20543;-84
2022/12/17 15:14:45;;;;;;;35.42;19.98;;;0.10;99.90;;;;;;4950203;28;20042;-84
2022/12/17 15:17:11;;;;;;;40.28;21.90;;;0.10;99.90;;;;;;4967123;28;20479;-85
2022/12/17 15:19:36;;;;;;;34.28;18.10;;;-0.10;99.90;;;;;;4967038;28;20330;-84
2022/12/17 15:22:03;;;;;;;37.90;19.73;;;-0.30;99.90;;;;;;4984960;28;20093;-85
2022/12/17 15:24:28;;;;;;;41.40;22.63;;;-0.20;99.90;;;;;;5003844;28;20054;-84
2022/12/17 15:26:54;;;;;;;31.77;18.52;;;-0.20;99.90;;;;;;4971836;28;20076;-84
2022/12/17 15:29:19;;;;;;;45.78;22.60;;;-0.40;99.90;;;;;;5003864;28;20037;-85
2022/12/17 15:31:45;;;;;;;37.00;19.27;;;-0.40;99.90;;;;;;4985781;28;20092;-84
2022/12/17 15:34:10;;;;;;;36.53;18.80;;;-0.60;99.90;;;;;;4970947;28;20033;-83
2022/12/17 15:36:36;;;;;;;41.97;22.65;;;-0.60;99.90;;;;;;4986154;28;20034;-85
2022/12/17 15:39:04;;;;;;;42.78;21.55;;;-0.80;99.90;;;;;;4988294;28;20042;-85
2022/12/17 15:44:13;;;;;;;43.63;22.85;;;-1.10;99.90;;;;;;4974737;28;20405;-85
2022/12/17 15:46:39;;;;;;;35.55;20.77;;;-1.10;99.90;;;;;;4970304;28;20031;-85
2022/12/17 15:49:04;;;;;;;37.42;20.02;;;-1.20;99.90;;;;;;4971126;28;20061;-84
2022/12/17 15:51:30;;;;;;;36.15;18.92;;;-1.20;99.90;;;;;;4987048;28;20065;-84
2022/12/17 15:53:55;;;;;;;35.35;17.95;;;-1.20;99.90;;;;;;4971560;28;20041;-80
2022/12/17 15:56:23;;;;;;;35.38;18.95;;;-1.20;99.90;;;;;;4970304;28;20030;-79
2022/12/17 15:58:49;;;;;;;42.42;19.67;;;-1.20;99.90;;;;;;4963393;28;20038;-80
2022/12/17 16:01:15;;;;;;;31.33;17.90;;;-1.20;99.90;;;;;;4985526;28;20097;-79
2022/12/17 16:03:40;;;;;;;34.90;17.50;;;-1.40;99.90;;;;;;4987125;28;20046;-79
2022/12/17 16:06:06;;;;;;;32.47;16.73;;;-1.50;99.90;;;;;;5002684;28;20034;-80
2022/12/17 16:08:31;;;;;;;30.75;17.88;;;-1.60;99.90;;;;;;4987143;28;20069;-80
2022/12/17 16:10:57;;;;;;;36.15;18.30;;;-1.50;99.90;;;;;;4970225;28;20526;-80
2022/12/17 16:13:22;;;;;;;35.17;16.90;;;-1.40;99.90;;;;;;4970172;28;20596;-80
2022/12/17 16:15:57;;;;;;;40.03;19.58;;;-1.40;99.90;;;;;;4987549;28;20046;-80
2022/12/17 16:18:22;;;;;;;40.10;21.35;;;-1.40;99.90;;;;;;5002319;28;20038;-80
2022/12/17 16:20:48;;;;;;;53.25;27.65;;;-1.70;99.90;;;;;;4986184;28;20058;-81
2022/12/17 16:23:14;;;;;;;57.08;32.05;;;-1.90;99.90;;;;;;5003416;28;20027;-79
2022/12/17 16:25:40;;;;;;;51.28;30.50;;;-2.10;99.90;;;;;;4986423;28;20034;-80
2022/12/17 16:28:05;;;;;;;49.63;28.45;;;-2.20;99.90;;;;;;4970412;28;20085;-80
2022/12/17 16:30:31;;;;;;;38.65;20.88;;;-2.40;99.90;;;;;;4986764;28;20041;-80
2022/12/17 16:32:57;;;;;;;41.80;23.35;;;-2.40;99.90;;;;;;4968904;28;20300;-79
2022/12/17 16:35:23;;;;;;;41.58;20.90;;;-2.50;99.90;;;;;;4983932;28;20034;-80
2022/12/17 16:37:49;;;;;;;48.58;24.90;;;-2.50;99.90;;;;;;4953704;28;20041;-80
2022/12/17 16:40:14;;;;;;;49.20;23.40;;;-2.60;99.90;;;;;;4987727;28;20030;-78
2022/12/17 16:42:40;;;;;;;48.40;25.10;;;-2.70;99.90;;;;;;4967862;28;20039;-80
2022/12/17 16:45:06;;;;;;;46.17;23.80;;;-2.70;99.90;;;;;;4970243;28;20037;-79
2022/12/17 16:47:33;;;;;;;49.10;26.10;;;-2.90;99.90;;;;;;4968032;28;20066;-78
2022/12/17 16:49:58;;;;;;;47.00;25.20;;;-2.90;99.90;;;;;;4969501;28;20038;-80
2022/12/17 16:52:24;;;;;;;48.05;22.95;;;-3.00;99.90;;;;;;4985879;28;20445;-78
2022/12/17 16:54:49;;;;;;;37.55;18.67;;;-3.10;99.90;;;;;;4985698;28;20065;-78
2022/12/17 16:57:15;;;;;;;32.33;16.45;;;-3.10;99.90;;;;;;5001114;28;20069;-78
2022/12/17 16:59:40;;;;;;;37.97;18.75;;;-3.00;99.90;;;;;;4981470;28;20025;-80
2022/12/17 17:02:14;;;;;;;40.88;18.00;;;-2.80;99.90;;;;;;5000243;28;20053;-78
2022/12/17 17:04:40;;;;;;;46.65;24.60;;;-2.80;99.90;;;;;;4969851;28;20041;-77
2022/12/17 17:07:05;;;;;;;43.13;23.17;;;-3.10;99.90;;;;;;4999936;28;20405;-82
2022/12/17 17:09:31;;;;;;;48.08;25.13;;;-3.20;99.90;;;;;;5001554;28;20113;-81
2022/12/17 17:11:57;;;;;;;45.40;24.60;;;-3.30;99.90;;;;;;4969583;28;20096;-82
2022/12/17 17:14:24;;;;;;;48.88;25.75;;;-3.40;99.90;;;;;;4986008;28;20026;-84
2022/12/17 17:16:49;;;;;;;50.95;24.85;;;-3.50;99.90;;;;;;4969512;28;20065;-82
2022/12/17 17:19:15;;;;;;;49.13;26.27;;;-3.60;99.90;;;;;;4952931;28;20069;-82
2022/12/17 17:21:41;;;;;;;54.17;26.75;;;-3.70;99.90;;;;;;5001055;28;20085;-82
2022/12/17 17:24:12;;;;;;;50.92;25.98;;;-3.70;99.90;;;;;;5001716;28;20045;-82
2022/12/17 17:26:38;;;;;;;56.17;26.38;;;-3.80;99.90;;;;;;4998022;28;20143;-82
2022/12/17 17:29:03;;;;;;;54.33;28.05;;;-3.80;99.90;;;;;;4929576;28;20125;-81
2022/12/17 17:31:29;;;;;;;49.35;27.98;;;-4.00;99.90;;;;;;4968329;28;20489;-84
2022/12/17 17:33:55;;;;;;;54.95;28.02;;;-4.20;99.90;;;;;;4944669;28;20046;-84
2022/12/17 17:36:27;;;;;;;52.83;23.58;;;-4.10;99.90;;;;;;4986340;28;20041;-85
2022/12/17 17:38:57;;;;;;;36.30;18.38;;;-4.00;99.90;;;;;;4959943;28;20081;-83
2022/12/17 17:41:24;;;;;;;48.33;25.90;;;-4.00;99.90;;;;;;4985070;28;20031;-80
2022/12/17 17:43:54;;;;;;;52.03;27.92;;;-4.10;99.90;;;;;;5002210;28;20382;-81
2022/12/17 17:46:20;;;;;;;59.65;32.58;;;-4.10;99.90;;;;;;4953674;28;20402;-82
2022/12/17 17:48:46;;;;;;;56.50;31.08;;;-4.20;99.90;;;;;;4984485;28;20030;-83
2022/12/17 17:51:23;;;;;;;59.40;29.38;;;-4.20;99.90;;;;;;4984348;28;20405;-84
2022/12/17 17:53:50;;;;;;;56.88;30.48;;;-4.20;99.90;;;;;;4974668;28;20089;-84
2022/12/17 17:56:17;;;;;;;60.13;30.02;;;-4.20;99.90;;;;;;4951804;28;20038;-84
2022/12/17 17:58:44;;;;;;;65.85;32.88;;;-4.30;99.90;;;;;;4987196;28;20092;-83
2022/12/17 18:01:10;;;;;;;66.93;33.42;;;-4.40;99.90;;;;;;4983680;28;20037;-84
2022/12/17 18:03:36;;;;;;;64.57;32.88;;;-4.50;99.90;;;;;;4985875;28;20026;-84
2022/12/17 18:06:03;;;;;;;61.42;30.65;;;-4.60;99.90;;;;;;4982490;28;20517;-85
2022/12/17 18:08:29;;;;;;;54.60;29.77;;;-4.70;99.90;;;;;;4999322;28;20492;-81
2022/12/17 18:10:59;;;;;;;58.72;31.50;;;-4.70;99.90;;;;;;4967180;28;20042;-85
2022/12/17 18:16:10;;;;;;;64.95;30.83;;;-4.70;99.90;;;;;;4982836;28;20401;-82
2022/12/17 18:18:35;;;;;;;65.65;32.97;;;-4.80;99.90;;;;;;4970005;28;20064;-82
2022/12/17 18:21:27;;;;;;;78.10;38.00;;;-5.00;99.90;;;;;;4967794;28;20026;-82
2022/12/17 18:23:59;;;;;;;76.93;37.95;;;-5.10;99.90;;;;;;4982688;28;20037;-83
2022/12/17 18:26:25;;;;;;;72.65;37.05;;;-5.00;99.90;;;;;;4950058;28;20031;-81
2022/12/17 18:28:51;;;;;;;67.28;34.13;;;-4.90;99.90;;;;;;4981956;28;20035;-82
2022/12/17 18:31:21;;;;;;;67.68;33.22;;;-4.90;99.90;;;;;;4984676;28;20034;-82
2022/12/17 18:33:50;;;;;;;64.53;32.88;;;-4.90;99.90;;;;;;4985119;28;20401;-86
2022/12/17 18:36:29;;;;;;;59.58;32.88;;;-4.90;99.90;;;;;;4991233;28;20646;-86
2022/12/17 18:38:56;;;;;;;67.18;32.35;;;-5.00;99.90;;;;;;4990572;28;20045;-86
2022/12/17 18:44:06;;;;;;;65.40;31.42;;;-5.00;99.90;;;;;;4999530;28;20149;-83
2022/12/17 18:46:32;;;;;;;67.10;31.58;;;-5.20;99.90;;;;;;4984424;28;20160;-81
2022/12/17 18:48:58;;;;;;;65.57;33.05;;;-5.20;99.90;;;;;;4964751;28;20042;-83
2022/12/17 18:51:24;;;;;;;67.25;32.42;;;-5.40;99.90;;;;;;4952576;28;20061;-85
2022/12/17 18:53:51;;;;;;;71.10;33.28;;;-5.30;99.90;;;;;;4968343;28;20055;-86
2022/12/17 18:56:17;;;;;;;68.47;33.25;;;-5.30;99.90;;;;;;4984127;28;20050;-86
2022/12/17 18:58:43;;;;;;;72.05;33.70;;;-5.30;99.90;;;;;;4989406;28;20101;-83
2022/12/17 19:01:18;;;;;;;87.72;41.83;;;-5.40;99.90;;;;;;5004812;28;20035;-86
2022/12/17 19:03:44;;;;;;;75.90;36.92;;;-5.50;99.90;;;;;;4972357;28;20045;-86
2022/12/17 19:06:10;;;;;;;78.78;39.22;;;-5.60;99.90;;;;;;4963220;28;20038;-87
2022/12/17 19:08:35;;;;;;;75.40;37.90;;;-5.60;99.90;;;;;;4970975;28;20033;-87
2022/12/17 19:11:05;;;;;;;74.03;33.60;;;-5.70;99.90;;;;;;4971762;28;20489;-87
2022/12/17 19:13:32;;;;;;;63.90;28.58;;;-5.70;99.90;;;;;;4970846;28;20038;-87
2022/12/17 19:16:03;;;;;;;71.78;34.35;;;-5.60;99.90;;;;;;4972491;28;20039;-84
2022/12/17 19:18:29;;;;;;;66.35;30.88;;;-5.70;99.90;;;;;;4985312;28;20030;-85
2022/12/17 19:20:58;;;;;;;68.68;32.28;;;-5.70;99.90;;;;;;4970380;28;20027;-85
2022/12/17 19:23:23;;;;;;;67.85;33.78;;;-5.70;99.90;;;;;;4932092;28;20389;-86
2022/12/17 19:25:49;;;;;;;62.47;30.92;;;-5.80;99.90;;;;;;4962413;28;20130;-86
2022/12/17 19:28:15;;;;;;;65.82;32.83;;;-5.80;99.90;;;;;;4978258;28;20493;-85
2022/12/17 19:30:41;;;;;;;70.85;37.05;;;-5.80;99.90;;;;;;4988363;28;20026;-86
2022/12/17 19:33:07;;;;;;;91.47;41.22;;;-5.80;99.90;;;;;;4988043;28;20030;-84
2022/12/17 19:35:34;;;;;;;71.50;36.30;;;-5.80;99.90;;;;;;4971926;28;20469;-86
2022/12/17 19:38:00;;;;;;;77.60;35.65;;;-5.80;99.90;;;;;;4969777;28;20485;-85
2022/12/17 19:40:26;;;;;;;63.35;32.40;;;-6.00;99.90;;;;;;4972237;28;20036;-85
2022/12/17 19:42:54;;;;;;;65.53;32.03;;;-6.10;99.90;;;;;;4954708;28;20031;-83
2022/12/17 19:45:20;;;;;;;68.95;32.38;;;-6.00;99.90;;;;;;4972938;28;20030;-86
2022/12/17 19:47:46;;;;;;;73.63;32.05;;;-5.90;99.90;;;;;;4987580;28;20100;-85
2022/12/17 19:50:12;;;;;;;66.68;33.13;;;-6.00;99.90;;;;;;4986546;28;20100;-79
2022/12/17 19:52:37;;;;;;;69.45;32.70;;;-6.00;99.90;;;;;;4963044;28;20053;-79
2022/12/17 19:55:03;;;;;;;67.75;33.63;;;-6.10;99.90;;;;;;4969951;28;20038;-79
2022/12/17 19:57:29;;;;;;;63.38;29.83;;;-6.20;99.90;;;;;;4984724;28;20038;-78
2022/12/17 19:59:54;;;;;;;74.05;32.75;;;-6.30;99.90;;;;;;4965993;28;20031;-78
2022/12/17 20:02:20;;;;;;;62.28;28.63;;;-6.40;99.90;;;;;;4985576;28;20030;-79
2022/12/17 20:04:46;;;;;;;60.35;28.35;;;-6.40;99.90;;;;;;4984642;28;20073;-79
2022/12/17 20:07:11;;;;;;;62.58;29.90;;;-6.40;99.90;;;;;;4953778;28;20086;-78
2022/12/17 20:09:39;;;;;;;58.25;29.23;;;-6.40;99.90;;;;;;4985451;28;20553;-78
2022/12/17 20:12:05;;;;;;;64.93;30.27;;;-6.30;99.90;;;;;;4963656;28;20550;-78
2022/12/17 20:14:33;;;;;;;68.57;32.75;;;-6.40;99.90;;;;;;4969885;28;20027;-79
2022/12/17 20:16:58;;;;;;;72.40;33.42;;;-6.40;99.90;;;;;;4969657;28;20506;-78
2022/12/17 20:19:26;;;;;;;72.63;34.45;;;-6.40;99.90;;;;;;4985880;28;20091;-79
2022/12/17 20:21:51;;;;;;;62.55;31.33;;;-6.40;99.90;;;;;;4986530;28;20490;-78
2022/12/17 20:24:17;;;;;;;62.22;29.77;;;-6.50;99.90;;;;;;5003395;28;20080;-78
2022/12/17 20:26:43;;;;;;;64.20;30.67;;;-6.50;99.90;;;;;;4969190;28;20042;-78
2022/12/17 20:29:09;;;;;;;65.95;30.55;;;-6.60;99.90;;;;;;4969995;28;20034;-79
2022/12/17 20:31:34;;;;;;;66.82;32.42;;;-6.70;99.90;;;;;;4968674;28;20121;-79
2022/12/17 20:34:02;;;;;;;61.25;28.48;;;-6.70;99.90;;;;;;4969367;28;20026;-79
2022/12/17 20:36:27;;;;;;;65.90;32.22;;;-6.80;99.90;;;;;;4968675;28;20035;-78
2022/12/17 20:38:53;;;;;;;62.78;31.13;;;-6.80;99.90;;;;;;4989381;28;20050;-79
2022/12/17 20:41:20;;;;;;;58.08;31.20;;;-6.90;99.90;;;;;;4969256;28;20030;-79
2022/12/17 20:43:46;;;;;;;68.72;30.45;;;-6.90;99.90;;;;;;4985438;28;20034;-78
2022/12/17 20:46:12;;;;;;;69.35;31.90;;;-6.90;99.90;;;;;;4970770;28;20053;-79
2022/12/17 20:48:38;;;;;;;60.47;28.60;;;-6.90;99.90;;;;;;4990756;28;20037;-80
2022/12/17 20:51:30;;;;;;;55.70;29.17;;;-6.80;99.90;;;;;;4964819;28;20402;-78
2022/12/17 20:53:56;;;;;;;60.47;30.15;;;-6.70;99.90;;;;;;4994918;28;20073;-78
2022/12/17 20:56:26;;;;;;;59.25;29.42;;;-6.80;99.90;;;;;;5004088;28;20062;-78
2022/12/17 20:58:52;;;;;;;55.17;28.17;;;-6.80;99.90;;;;;;4970453;28;20120;-78
2022/12/17 21:01:19;;;;;;;56.53;28.33;;;-6.70;99.90;;;;;;4990208;28;20030;-79
2022/12/17 21:03:45;;;;;;;63.65;31.25;;;-6.80;99.90;;;;;;4974969;28;20074;-78
2022/12/17 21:06:16;;;;;;;59.13;28.85;;;-6.90;99.90;;;;;;4975748;28;20042;-78
2022/12/17 21:08:42;;;;;;;57.83;29.38;;;-6.90;99.90;;;;;;4969723;28;20117;-79
2022/12/17 21:11:09;;;;;;;59.47;27.75;;;-6.80;99.90;;;;;;4973843;28;20130;-79
2022/12/17 21:13:35;;;;;;;62.22;29.52;;;-6.90;99.90;;;;;;4972294;28;20041;-79
2022/12/17 21:16:03;;;;;;;56.47;27.48;;;-6.80;99.90;;;;;;4952041;28;20042;-79
2022/12/17 21:18:29;;;;;;;54.92;27.13;;;-6.60;99.90;;;;;;4952597;28;20568;-79
2022/12/17 21:21:03;;;;;;;51.13;28.10;;;-6.60;99.90;;;;;;4968515;28;20124;-79
2022/12/17 21:23:29;;;;;;;64.28;33.22;;;-6.80;99.90;;;;;;4984806;28;20502;-79
2022/12/17 21:26:06;;;;;;;72.35;33.05;;;-6.90;99.90;;;;;;4984898;28;20030;-79
2022/12/17 21:28:32;;;;;;;66.50;31.80;;;-6.70;99.90;;;;;;4968327;28;20027;-78
2022/12/17 21:30:58;;;;;;;67.78;33.00;;;-6.60;99.90;;;;;;4968162;28;20502;-78
2022/12/17 21:33:23;;;;;;;72.45;33.53;;;-6.80;99.90;;;;;;4951770;28;20035;-79
2022/12/17 21:35:49;;;;;;;70.68;34.10;;;-7.00;99.90;;;;;;4953581;28;20732;-79
2022/12/17 21:38:18;;;;;;;45.88;23.95;;;-7.00;99.90;;;;;;4986803;28;20081;-79
2022/12/17 21:40:43;;;;;;;54.72;25.33;;;-7.10;99.90;;;;;;4984322;28;20481;-78
2022/12/17 21:43:09;;;;;;;53.30;27.05;;;-6.90;99.90;;;;;;4969326;28;20117;-79
2022/12/17 21:45:38;;;;;;;64.70;29.58;;;-6.80;99.90;;;;;;5002897;28;20026;-78
2022/12/17 21:48:05;;;;;;;65.22;31.13;;;-6.90;99.90;;;;;;4970526;28;20080;-79
2022/12/17 21:50:40;;;;;;;65.40;30.35;;;-7.10;99.90;;;;;;4954433;28;20183;-78
2022/12/17 21:53:06;;;;;;;;;;;-7.20;99.90;;;;;;4969339;28;20034;-78
2022/12/17 21:55:32;;;;;;;59.13;30.83;;;-7.20;99.90;;;;;;4967416;28;20388;-78
2022/12/17 21:57:57;;;;;;;68.13;34.05;;;-7.20;99.90;;;;;;4973825;28;20027;-79
2022/12/17 22:00:23;;;;;;;64.90;31.92;;;-7.30;99.90;;;;;;4986642;28;20034;-79
2022/12/17 22:02:49;;;;;;;52.17;27.48;;;-7.20;99.90;;;;;;4969280;28;20038;-79
2022/12/17 22:05:14;;;;;;;59.85;28.88;;;-7.20;99.90;;;;;;4985368;28;20033;-78
2022/12/17 22:07:40;;;;;;;53.33;24.50;;;-7.20;99.90;;;;;;4970312;28;20057;-79
2022/12/17 22:10:06;;;;;;;48.70;24.95;;;-7.30;99.90;;;;;;4986831;28;20046;-79
2022/12/17 22:15:16;;;;;;;50.03;23.02;;;-7.20;99.90;;;;;;4986568;28;20092;-78
2022/12/17 22:17:41;;;;;;;45.47;23.02;;;-7.20;99.90;;;;;;4985591;28;20027;-78
2022/12/17 22:20:07;;;;;;;50.50;24.38;;;-7.20;99.90;;;;;;4985355;28;20037;-78
2022/12/17 22:22:33;;;;;;;42.70;21.98;;;-7.30;99.90;;;;;;5001669;28;20030;-78
2022/12/17 22:24:59;;;;;;;36.42;15.63;;;-7.40;99.90;;;;;;4970195;28;20041;-79
2022/12/17 22:27:24;;;;;;;38.33;18.73;;;-7.20;99.90;;;;;;5002349;28;20031;-79
2022/12/17 22:35:18;;;;;;;36.38;18.35;;;-7.10;99.90;;;;;;4971558;28;20096;-78
2022/12/17 22:37:43;;;;;;;35.28;17.30;;;-7.10;99.90;;;;;;4968763;28;20034;-78
2022/12/17 22:40:10;;;;;;;36.58;15.38;;;-7.00;99.90;;;;;;4986388;28;20029;-77
2022/12/17 22:45:21;;;;;;;32.95;16.42;;;-6.80;99.90;;;;;;4985254;28;20033;-78
2022/12/17 22:47:46;;;;;;;38.75;17.70;;;-6.80;99.90;;;;;;4987631;28;20069;-77
2022/12/17 22:50:12;;;;;;;28.00;15.27;;;-6.80;99.90;;;;;;4987123;28;20065;-77
2022/12/17 22:52:37;;;;;;;24.17;10.93;;;-6.70;99.90;;;;;;5000928;28;20038;-77
2022/12/17 22:55:05;;;;;;;23.15;11.93;;;-6.50;99.90;;;;;;4967412;28;20097;-78
2022/12/17 22:57:30;;;;;;;27.30;13.30;;;-6.50;99.90;;;;;;5002071;28;20259;-77
2022/12/17 22:59:56;;;;;;;22.60;12.25;;;-6.30;99.90;;;;;;5002717;28;20041;-78
2022/12/17 23:02:22;;;;;;;24.02;10.80;;;-6.00;99.90;;;;;;4986944;28;20030;-78
2022/12/17 23:04:47;;;;;;;21.33;10.35;;;-5.90;99.90;;;;;;4984763;28;20034;-77
2022/12/17 23:07:13;;;;;;;28.48;11.65;;;-5.80;99.90;;;;;;4988991;28;20033;-83
2022/12/17 23:09:38;;;;;;;21.83;12.70;;;-6.00;99.90;;;;;;4984684;28;20057;-84
2022/12/17 23:14:51;;;;;;;21.30;10.95;;;-6.00;99.90;;;;;;4986513;28;20480;-83
2022/12/17 23:17:16;;;;;;;25.42;12.68;;;-6.10;99.90;;;;;;4985812;28;20034;-85
2022/12/17 23:19:42;;;;;;;30.92;16.70;;;-6.10;99.90;;;;;;4986477;28;20026;-85
2022/12/17 23:22:07;;;;;;;21.73;11.20;;;-6.30;99.90;;;;;;4970576;28;20026;-82
2022/12/17 23:24:33;;;;;;;17.02;9.85;;;-6.30;99.90;;;;;;4986570;28;20038;-86
2022/12/17 23:26:58;;;;;;;20.02;9.70;;;-6.30;99.90;;;;;;4986572;28;20062;-83
2022/12/17 23:29:24;;;;;;;22.38;9.50;;;-5.90;99.90;;;;;;4970617;28;20077;-83
2022/12/17 23:31:51;;;;;;;19.33;10.45;;;-5.80;99.90;;;;;;4969054;28;20031;-84
2022/12/17 23:34:17;;;;;;;25.30;10.07;;;-5.90;99.90;;;;;;4987343;28;20063;-85
2022/12/17 23:36:44;;;;;;;17.70;9.05;;;-5.90;99.90;;;;;;5002535;28;20469;-84
2022/12/17 23:39:09;;;;;;;17.55;8.30;;;-5.80;99.90;;;;;;4970186;28;20037;-85
2022/12/17 23:41:35;;;;;;;17.02;8.43;;;-5.60;99.90;;;;;;4987023;28;20034;-85
2022/12/17 23:44:02;;;;;;;17.10;8.45;;;-5.60;99.90;;;;;;4988757;28;20038;-84
2022/12/17 23:46:28;;;;;;;15.98;9.27;;;-5.70;99.90;;;;;;4990383;28;20054;-84
2022/12/17 23:48:54;;;;;;;16.35;8.05;;;-5.80;99.90;;;;;;4973281;28;20549;-85
2022/12/17 23:51:21;;;;;;;14.10;7.00;;;-5.70;99.90;;;;;;4957557;28;20117;-85
2022/12/17 23:53:47;;;;;;;13.52;7.13;;;-5.50;99.90;;;;;;4992172;28;20690;-83
2022/12/17 23:56:15;;;;;;;13.80;5.63;;;-5.30;99.90;;;;;;4973121;28;20026;-80
2022/12/17 23:58:41;;;;;;;14.73;7.00;;;-5.30;99.90;;;;;;5003756;28;20532;-83
